Terminal Aerodrome Forecast
Issued by NWS

Current Version | Previous Version | Text Only | Print | Product List | Glossary Off
Versions: 1 2 3 4 5 6 7 8 9 10 11 12 13 14 15 16 17 18 19

000
FTUS41 KPBZ 221725
TAFHLG
TAF
KHLG 221725Z 2218/2318 34004KT P6SM SCT250
     FM230800 00000KT 3SM BR FEW250
     FM230900 00000KT 1SM BR SKC
      TEMPO 2309/2312 1/2SM FG VV002
     FM231400 VRB03KT P6SM SKC=

USA.gov is the U.S. government's official web portal to all federal, state and local government web resources and services.